createdAt,value
2018-10-11T00:02:38.141Z,9.67
2018-10-11T00:07:33.024Z,9.63
2018-10-11T00:12:27.936Z,9.00
2018-10-11T00:17:22.753Z,9.23
2018-10-11T00:22:17.593Z,9.50
2018-10-11T00:27:12.714Z,9.33
2018-10-11T00:32:07.626Z,9.30
2018-10-11T00:37:02.459Z,9.83
2018-10-11T00:41:57.260Z,9.57
2018-10-11T00:46:52.101Z,9.43
2018-10-11T00:51:46.906Z,9.93
2018-10-11T00:56:41.893Z,9.43
2018-10-11T01:01:36.708Z,10.17
2018-10-11T01:06:31.565Z,9.50
2018-10-11T01:11:26.462Z,11.13
2018-10-11T01:16:21.263Z,11.57
2018-10-11T01:21:16.073Z,11.07
2018-10-11T01:26:11.438Z,9.97
2018-10-11T01:31:11.218Z,7.97
2018-10-11T01:36:06.170Z,8.30
2018-10-11T01:41:01.045Z,8.00
2018-10-11T01:45:55.911Z,7.63
2018-10-11T01:50:50.753Z,6.43
2018-10-11T01:55:45.567Z,7.40
2018-10-11T02:00:40.662Z,7.47
2018-10-11T02:05:35.468Z,6.93
2018-10-11T02:10:30.302Z,6.63
2018-10-11T02:15:25.638Z,6.50
2018-10-11T02:20:20.887Z,5.43
2018-10-11T02:25:15.789Z,5.63
2018-10-11T02:30:11.377Z,5.00
2018-10-11T02:35:06.380Z,4.63
2018-10-11T02:40:02.148Z,4.90
2018-10-11T02:44:57.089Z,5.30
2018-10-11T02:49:52.925Z,5.50
2018-10-11T02:54:47.824Z,5.80
2018-10-11T02:59:42.873Z,6.00
2018-10-11T03:04:38.267Z,7.00
2018-10-11T03:09:33.261Z,6.03
2018-10-11T03:14:28.430Z,6.60
2018-10-11T03:19:23.377Z,6.13
2018-10-11T03:24:18.351Z,6.83
2018-10-11T03:29:13.239Z,6.43
2018-10-11T03:34:08.066Z,6.83
2018-10-11T03:39:03.031Z,6.63
2018-10-11T03:43:57.932Z,6.67
2018-10-11T03:48:52.865Z,7.57
2018-10-11T03:53:47.779Z,6.97
2018-10-11T03:58:42.803Z,7.37
2018-10-11T04:03:37.748Z,7.33
2018-10-11T04:08:32.866Z,7.50
2018-10-11T04:13:27.796Z,7.33
2018-10-11T04:18:22.731Z,7.30
2018-10-11T04:23:22.685Z,7.13
2018-10-11T04:28:17.649Z,8.00
2018-10-11T04:33:13.006Z,7.50
2018-10-11T04:38:08.013Z,7.33
2018-10-11T04:43:03.038Z,7.87
2018-10-11T04:47:57.881Z,8.67
2018-10-11T04:52:52.800Z,7.27
2018-10-11T04:57:48.476Z,7.03
2018-10-11T05:02:43.386Z,7.37
2018-10-11T05:07:38.289Z,7.00
2018-10-11T05:12:33.323Z,7.47
2018-10-11T05:17:28.409Z,7.03
2018-10-11T05:22:23.413Z,7.40
2018-10-11T05:27:19.386Z,8.00
2018-10-11T05:32:14.729Z,7.83
2018-10-11T05:37:09.687Z,7.87
2018-10-11T05:42:04.869Z,7.10
2018-10-11T05:46:59.937Z,8.70
2018-10-11T05:51:55.621Z,8.63
2018-10-11T05:56:51.147Z,7.40
2018-10-11T06:01:46.151Z,8.37
2018-10-11T06:06:41.245Z,7.90
2018-10-11T06:11:36.341Z,8.10
2018-10-11T06:16:31.315Z,7.97
2018-10-11T06:21:27.451Z,8.50
2018-10-11T06:26:22.499Z,8.33
2018-10-11T06:31:17.572Z,8.03
2018-10-11T06:36:12.728Z,9.07
2018-10-11T06:41:07.764Z,8.50
2018-10-11T06:46:02.785Z,8.57
2018-10-11T06:50:57.787Z,8.27
2018-10-11T06:55:52.664Z,8.23
2018-10-11T07:00:47.685Z,10.00
2018-10-11T07:05:42.594Z,10.80
2018-10-11T07:10:37.452Z,10.87
2018-10-11T07:15:33.082Z,12.63
2018-10-11T07:20:28.013Z,10.80
2018-10-11T07:25:22.866Z,11.60
2018-10-11T07:30:17.781Z,10.00
2018-10-11T07:35:12.755Z,10.87
2018-10-11T07:40:08.137Z,10.10
2018-10-11T07:45:02.994Z,11.40
2018-10-11T07:49:57.868Z,10.73
2018-10-11T07:54:52.821Z,8.80
2018-10-11T07:59:47.626Z,9.93
2018-10-11T08:04:42.453Z,10.20
2018-10-11T08:09:37.266Z,9.73
2018-10-11T08:14:32.013Z,9.90
2018-10-11T08:19:28.001Z,10.27
2018-10-11T08:24:22.492Z,9.03
2018-10-11T08:29:17.257Z,9.03
2018-10-11T08:34:12.942Z,8.63
2018-10-11T08:39:11.538Z,8.63
2018-10-11T08:44:06.515Z,9.47
2018-10-11T08:49:02.143Z,8.03
2018-10-11T08:54:01.054Z,7.93
2018-10-11T08:58:55.848Z,7.83
2018-10-11T09:03:50.840Z,9.10
2018-10-11T09:08:45.521Z,8.83
2018-10-11T09:13:40.362Z,8.33
2018-10-11T09:18:35.319Z,7.30
2018-10-11T09:23:30.150Z,7.27
2018-10-11T09:28:26.338Z,6.10
2018-10-11T09:33:21.257Z,5.80
2018-10-11T09:38:17.762Z,6.17
2018-10-11T09:43:12.649Z,6.17
2018-10-11T09:48:07.443Z,6.97
2018-10-11T09:53:02.275Z,6.30
2018-10-11T09:57:57.094Z,6.90
2018-10-11T10:02:52.462Z,6.73
2018-10-11T10:07:47.303Z,6.90
2018-10-11T10:12:42.117Z,6.60
2018-10-11T10:17:37.414Z,6.20
2018-10-11T10:22:32.513Z,7.00
2018-10-11T10:27:27.387Z,6.70
2018-10-11T10:32:22.195Z,6.90
2018-10-11T10:37:17.065Z,6.53
2018-10-11T10:42:11.900Z,6.73
2018-10-11T10:47:06.786Z,5.83
2018-10-11T10:52:01.633Z,5.60
2018-10-11T10:56:57.005Z,5.70
2018-10-11T11:01:51.805Z,5.73
2018-10-11T11:06:46.646Z,6.10
2018-10-11T11:11:41.818Z,7.87
2018-10-11T11:16:36.622Z,8.80
2018-10-11T11:21:31.474Z,8.20
2018-10-11T11:26:26.299Z,9.07
2018-10-11T11:31:21.315Z,10.37
2018-10-11T11:36:16.217Z,10.37
2018-10-11T11:41:11.064Z,9.43
2018-10-11T11:46:05.909Z,9.00
2018-10-11T11:51:00.827Z,9.63
2018-10-11T11:55:55.710Z,9.63
2018-10-11T12:00:50.586Z,9.10
2018-10-11T12:05:45.409Z,8.73
2018-10-11T12:10:40.261Z,8.97
2018-10-11T12:15:35.677Z,8.80
2018-10-11T12:20:33.583Z,8.83
2018-10-11T12:25:28.891Z,9.20
2018-10-11T12:30:25.015Z,9.53
2018-10-11T12:35:21.009Z,8.97
2018-10-11T12:40:17.115Z,9.90
2018-10-11T12:45:12.949Z,9.27
2018-10-11T12:50:09.189Z,9.80
2018-10-11T12:55:04.100Z,10.20
2018-10-11T12:59:58.952Z,9.47
2018-10-11T13:04:53.796Z,10.33
2018-10-11T13:09:48.661Z,9.47
2018-10-11T13:19:30.318Z,10.60
2018-10-11T13:24:26.216Z,9.63
2018-10-11T13:29:21.070Z,10.50
2018-10-11T13:34:15.936Z,10.13
2018-10-11T13:39:11.743Z,10.37
2018-10-11T13:44:06.581Z,9.70
2018-10-11T13:49:01.631Z,10.37
2018-10-11T13:53:58.398Z,10.73
2018-10-11T13:58:51.755Z,10.50
2018-10-11T14:03:49.100Z,10.97
2018-10-11T14:08:44.953Z,10.57
2018-10-11T14:13:40.890Z,11.57
2018-10-11T14:18:42.509Z,11.00
2018-10-11T14:23:37.958Z,10.53
2018-10-11T14:28:33.857Z,11.20
2018-10-11T14:33:30.947Z,11.73
2018-10-11T14:38:26.926Z,11.50
2018-10-11T14:43:21.814Z,11.93
2018-10-11T14:48:16.633Z,11.10
2018-10-11T14:53:11.486Z,11.40
2018-10-11T14:58:06.601Z,11.60
2018-10-11T15:03:02.189Z,10.70
2018-10-11T15:07:57.155Z,10.50
2018-10-11T15:12:51.935Z,12.20
2018-10-11T15:17:46.834Z,11.93
2018-10-11T15:22:41.655Z,11.20
2018-10-11T15:27:36.518Z,11.63
2018-10-11T15:32:32.521Z,10.93
2018-10-11T15:37:27.401Z,11.77
2018-10-11T15:42:22.285Z,10.13
2018-10-11T15:47:17.202Z,11.80
2018-10-11T15:52:12.107Z,10.23
2018-10-11T15:57:07.001Z,11.43
2018-10-11T16:02:02.725Z,10.97
2018-10-11T16:06:57.623Z,11.00
2018-10-11T16:11:52.558Z,11.50
2018-10-11T16:16:47.377Z,10.67
2018-10-11T16:21:42.273Z,10.70
2018-10-11T16:26:37.128Z,11.40
2018-10-11T16:31:32.055Z,10.67
2018-10-11T16:36:26.937Z,11.10
2018-10-11T16:41:21.780Z,10.73
2018-10-11T16:46:16.983Z,10.77
2018-10-11T16:51:11.819Z,11.50
2018-10-11T16:56:06.746Z,10.97
2018-10-11T17:01:01.611Z,10.73
2018-10-11T17:05:56.443Z,10.67
2018-10-11T17:10:51.327Z,10.13
2018-10-11T17:15:46.313Z,11.50
2018-10-11T17:20:41.142Z,10.90
2018-10-11T17:25:36.070Z,10.67
2018-10-11T17:30:30.915Z,10.70
2018-10-11T17:35:25.943Z,10.33
2018-10-11T17:40:20.898Z,10.77
2018-10-11T17:45:15.695Z,10.93
2018-10-11T17:50:10.653Z,11.33
2018-10-11T17:55:05.655Z,11.40
2018-10-11T18:00:00.515Z,12.20
2018-10-11T18:04:55.404Z,11.13
2018-10-11T18:09:50.556Z,10.73
2018-10-11T18:14:45.430Z,10.17
2018-10-11T18:19:40.308Z,10.27
2018-10-11T18:24:35.184Z,10.63
2018-10-11T18:29:30.068Z,11.50
2018-10-11T18:34:24.892Z,9.97
2018-10-11T18:39:20.805Z,10.47
2018-10-11T18:44:15.854Z,10.03
2018-10-11T18:49:11.089Z,10.40
2018-10-11T18:54:05.975Z,9.93
2018-10-11T18:59:00.815Z,9.60
2018-10-11T19:03:55.689Z,8.87
2018-10-11T19:08:50.580Z,9.40
2018-10-11T19:13:45.466Z,9.63
2018-10-11T19:18:40.957Z,9.83
2018-10-11T19:23:36.205Z,9.37
2018-10-11T19:28:31.072Z,9.60
2018-10-11T19:33:26.121Z,9.03
2018-10-11T19:38:21.099Z,9.17
2018-10-11T19:43:16.068Z,9.23
2018-10-11T19:48:11.086Z,8.63
2018-10-11T19:53:06.090Z,8.80
2018-10-11T19:58:01.757Z,9.20
2018-10-11T20:02:56.713Z,9.83
2018-10-11T20:07:51.914Z,9.10
2018-10-11T20:12:47.641Z,10.10
2018-10-11T20:17:42.938Z,9.20
2018-10-11T20:22:38.229Z,9.70
2018-10-11T20:32:42.864Z,9.07
2018-10-11T20:37:38.770Z,9.30
2018-10-11T20:42:34.008Z,9.60
2018-10-11T20:47:28.965Z,8.97
2018-10-11T20:52:23.816Z,9.27
2018-10-11T20:57:18.741Z,9.27
2018-10-11T21:02:14.313Z,8.73
2018-10-11T21:07:09.273Z,9.33
2018-10-11T21:12:04.765Z,9.63
2018-10-11T21:16:59.794Z,10.83
2018-10-11T21:21:54.633Z,9.90
2018-10-11T21:26:49.594Z,10.10
2018-10-11T21:31:44.442Z,8.93
2018-10-11T21:36:39.326Z,10.60
2018-10-11T21:41:34.441Z,9.57
2018-10-11T21:46:29.358Z,9.43
2018-10-11T21:51:24.158Z,9.40
2018-10-11T21:56:18.954Z,9.27
2018-10-11T22:01:18.951Z,9.43
2018-10-11T22:06:14.688Z,8.90
2018-10-11T22:11:10.134Z,10.60
2018-10-11T22:16:05.082Z,9.63
2018-10-11T22:21:00.011Z,9.10
2018-10-11T22:25:55.426Z,9.30
2018-10-11T22:30:50.302Z,8.73
2018-10-11T22:35:45.342Z,7.87
2018-10-11T22:40:40.385Z,9.53
2018-10-11T22:45:35.250Z,9.27
2018-10-11T22:50:30.131Z,9.20
2018-10-11T22:55:25.834Z,9.93
2018-10-11T23:00:21.978Z,9.87
2018-10-11T23:05:16.836Z,9.83
2018-10-11T23:10:11.791Z,9.53
2018-10-11T23:15:06.800Z,9.83
2018-10-11T23:20:01.684Z,9.63
2018-10-11T23:24:56.710Z,9.53
2018-10-11T23:29:51.558Z,9.57
2018-10-11T23:34:47.175Z,9.37
2018-10-11T23:39:42.206Z,9.67
2018-10-11T23:44:37.229Z,10.03
2018-10-11T23:49:32.313Z,8.97
2018-10-11T23:54:27.122Z,9.77
2018-10-11T23:59:22.498Z,9.57
